地図

経路データ

SID SEASON NUMBER BASIN SUBBASIN NAME ISO_TIME NATURE LAT LON WMO_WIND WMO_PRES WMO_AGENCY TRACK_TYPE DIST2LAND LANDFALL IFLAG USA_AGENCY USA_ATCF_ID USA_LAT USA_LON USA_RECORD USA_STATUS USA_WIND USA_PRES USA_SSHS USA_R34_NE USA_R34_SE USA_R34_SW USA_R34_NW USA_R50_NE USA_R50_SE USA_R50_SW USA_R50_NW USA_R64_NE USA_R64_SE USA_R64_SW USA_R64_NW USA_POCI USA_ROCI USA_RMW USA_EYE TOKYO_LAT TOKYO_LON TOKYO_GRADE TOKYO_WIND TOKYO_PRES TOKYO_R50_DIR TOKYO_R50_LONG TOKYO_R50_SHORT TOKYO_R30_DIR TOKYO_R30_LONG TOKYO_R30_SHORT TOKYO_LAND CMA_LAT CMA_LON CMA_CAT CMA_WIND CMA_PRES HKO_LAT HKO_LON HKO_CAT HKO_WIND HKO_PRES NEWDELHI_LAT NEWDELHI_LON NEWDELHI_GRADE NEWDELHI_WIND NEWDELHI_PRES NEWDELHI_CI NEWDELHI_DP NEWDELHI_POCI REUNION_LAT REUNION_LON REUNION_TYPE REUNION_WIND REUNION_PRES REUNION_TNUM REUNION_CI REUNION_RMW REUNION_R34_NE REUNION_R34_SE REUNION_R34_SW REUNION_R34_NW REUNION_R50_NE REUNION_R50_SE REUNION_R50_SW REUNION_R50_NW REUNION_R64_NE REUNION_R64_SE REUNION_R64_SW REUNION_R64_NW BOM_LAT BOM_LON BOM_TYPE BOM_WIND BOM_PRES BOM_TNUM BOM_CI BOM_RMW BOM_R34_NE BOM_R34_SE BOM_R34_SW BOM_R34_NW BOM_R50_NE BOM_R50_SE BOM_R50_SW BOM_R50_NW BOM_R64_NE BOM_R64_SE BOM_R64_SW BOM_R64_NW BOM_ROCI BOM_POCI BOM_EYE BOM_POS_METHOD BOM_PRES_METHOD NADI_LAT NADI_LON NADI_CAT NADI_WIND NADI_PRES WELLINGTON_LAT WELLINGTON_LON WELLINGTON_WIND WELLINGTON_PRES DS824_LAT DS824_LON DS824_STAGE DS824_WIND DS824_PRES TD9636_LAT TD9636_LON TD9636_STAGE TD9636_WIND TD9636_PRES TD9635_LAT TD9635_LON TD9635_WIND TD9635_PRES TD9635_ROCI NEUMANN_LAT NEUMANN_LON NEUMANN_CLASS NEUMANN_WIND NEUMANN_PRES MLC_LAT MLC_LON MLC_CLASS MLC_WIND MLC_PRES USA_GUST BOM_GUST BOM_GUST_PER REUNION_GUST REUNION_GUST_PER USA_SEAHGT USA_SEARAD_NE USA_SEARAD_SE USA_SEARAD_SW USA_SEARAD_NW STORM_SPEED STORM_DIR
1918099N06143 1918 29 WP MM NOT_NAMED 1918-04-08 22:00:00 NR 6.30000 142.500 main 1001 991 __________O___ -1 6.30000 142.500 4 10 286
1918099N06143 1918 29 WP MM NOT_NAMED 1918-04-09 00:00:00 NR 6.38801 142.191 main 997 987 __________P___ -1 6.38801 142.191 4 9 286
1918099N06143 1918 29 WP MM NOT_NAMED 1918-04-09 03:00:00 NR 6.51808 141.737 main 987 981 __________P___ -1 6.51808 141.737 4 9 286
1918099N06143 1918 29 WP MM NOT_NAMED 1918-04-09 06:00:00 NR 6.64367 141.308 main 981 980 __________P___ -1 6.64367 141.308 4 9 287
1918099N06143 1918 29 WP MM NOT_NAMED 1918-04-09 09:00:00 NR 6.76237 140.918 main 987 984 __________P___ -1 6.76237 140.918 4 8 287
1918099N06143 1918 29 WP MM NOT_NAMED 1918-04-09 10:00:00 NR 6.80000 140.800 main 984 981 __________O___ -1 6.80000 140.800 4 7 288
1918099N06143 1918 29 WP MM NOT_NAMED 1918-04-09 12:00:00 NR 6.87213 140.581 main 989 983 __________P___ -1 6.87213 140.581 4 7 289
1918099N06143 1918 29 WP MM NOT_NAMED 1918-04-09 15:00:00 NR 6.97414 140.279 main 991 986 __________P___ -1 6.97414 140.279 4 6 288
1918099N06143 1918 29 WP MM NOT_NAMED 1918-04-09 18:00:00 NR 7.07162 139.975 main 995 980 __________P___ -1 7.07162 139.975 4 7 287
1918099N06143 1918 29 WP MM NOT_NAMED 1918-04-09 21:00:00 NR 7.16774 139.630 main 986 981 __________P___ -1 7.16774 139.630 4 7 285
1918099N06143 1918 29 WP MM NOT_NAMED 1918-04-09 22:00:00 NR 7.20000 139.500 main 981 972 __________O___ -1 7.20000 139.500 4 9 282
1918099N06143 1918 29 WP MM NOT_NAMED 1918-04-10 00:00:00 NR 7.25622 139.198 main 978 959 __________P___ -1 7.25622 139.198 4 10 280
1918099N06143 1918 29 WP MM NOT_NAMED 1918-04-10 03:00:00 NR 7.34028 138.695 main 959 952 __________P___ -1 7.34028 138.695 4 11 280
1918099N06143 1918 29 WP MM NOT_NAMED 1918-04-10 06:00:00 NR 7.43509 138.151 main 952 945 __________P___ -1 7.43509 138.151 4 11 281
1918099N06143 1918 29 WP MM NOT_NAMED 1918-04-10 09:00:00 NR 7.55324 137.588 main 956 951 __________P___ -1 7.55324 137.588 4 11 282
1918099N06143 1918 29 WP MM NOT_NAMED 1918-04-10 10:00:00 NR 7.60000 137.400 main 951 946 __________O___ -1 7.60000 137.400 4 11 286
1918099N06143 1918 29 WP MM NOT_NAMED 1918-04-10 12:00:00 NR 7.71300 137.039 main 954 952 __________P___ -1 7.71300 137.039 4 11 289
1918099N06143 1918 29 WP MM NOT_NAMED 1918-04-10 15:00:00 NR 7.90787 136.491 main 968 967 __________P___ -1 7.90787 136.491 4 12 290
1918099N06143 1918 29 WP MM NOT_NAMED 1918-04-10 18:00:00 NR 8.11930 135.939 main 986 972 __________P___ -1 8.11930 135.939 4 12 291
1918099N06143 1918 29 WP MM NOT_NAMED 1918-04-10 21:00:00 NR 8.33169 135.385 main 972 950 __________P___ -1 8.33169 135.385 4 12 291
1918099N06143 1918 29 WP MM NOT_NAMED 1918-04-10 22:00:00 NR 8.40000 135.200 main 950 907 __________O___ -1 8.40000 135.200 4 12 289
1918099N06143 1918 29 WP MM NOT_NAMED 1918-04-11 00:00:00 NR 8.51961 134.831 main 907 855 __________P___ -1 8.51961 134.831 4 12 288
1918099N06143 1918 29 WP MM NOT_NAMED 1918-04-11 03:00:00 NR 8.69277 134.276 main 855 793 __________P___ -1 8.69277 134.276 4 11 287
1918099N06143 1918 29 WP MM NOT_NAMED 1918-04-11 06:00:00 NR 8.86397 133.725 main 793 741 __________P___ -1 8.86397 133.725 4 11 288
1918099N06143 1918 29 WP MM NOT_NAMED 1918-04-11 09:00:00 NR 9.03947 133.180 main 741 721 __________P___ -1 9.03947 133.180 4 11 288
1918099N06143 1918 29 WP MM NOT_NAMED 1918-04-11 10:00:00 NR 9.10000 133.000 main 721 681 __________O___ -1 9.10000 133.000 4 12 289
1918099N06143 1918 29 WP MM NOT_NAMED 1918-04-11 12:00:00 NR 9.23284 132.626 main 681 634 __________P___ -1 9.23284 132.626 4 12 290
1918099N06143 1918 29 WP MM NOT_NAMED 1918-04-11 15:00:00 NR 9.43861 132.071 main 634 578 __________P___ -1 9.43861 132.071 4 12 291
1918099N06143 1918 29 WP MM NOT_NAMED 1918-04-11 18:00:00 NR 9.64375 131.539 main 578 538 __________P___ -1 9.64375 131.539 4 11 292
1918099N06143 1918 29 WP MM NOT_NAMED 1918-04-11 21:00:00 NR 9.83883 131.050 main 538 519 __________P___ -1 9.83883 131.050 4 10 292
1918099N06143 1918 29 WP MM NOT_NAMED 1918-04-11 22:00:00 NR 9.90000 130.900 main 519 490 __________O___ -1 9.90000 130.900 4 9 292
1918099N06143 1918 29 WP MM NOT_NAMED 1918-04-12 00:00:00 NR 10.0059 130.626 main 490 460 __________P___ -1 10.0059 130.626 4 8 292
1918099N06143 1918 29 WP MM NOT_NAMED 1918-04-12 03:00:00 NR 10.1522 130.260 main 463 424 __________P___ -1 10.1522 130.260 4 7 293
1918099N06143 1918 29 WP MM NOT_NAMED 1918-04-12 06:00:00 NR 10.2946 129.928 main 424 396 __________P___ -1 10.2946 129.928 4 7 295
1918099N06143 1918 29 WP MM NOT_NAMED 1918-04-12 09:00:00 NR 10.4456 129.608 main 396 390 __________P___ -1 10.4456 129.608 4 7 296
1918099N06143 1918 29 WP MM NOT_NAMED 1918-04-12 10:00:00 NR 10.5000 129.500 main 390 374 __________O___ -1 10.5000 129.500 4 7 297
1918099N06143 1918 29 WP MM NOT_NAMED 1918-04-12 12:00:00 NR 10.6139 129.269 main 374 339 __________P___ -1 10.6139 129.269 4 8 298
1918099N06143 1918 29 WP MM NOT_NAMED 1918-04-12 15:00:00 NR 10.7974 128.923 main 339 305 __________P___ -1 10.7974 128.923 4 8 299
1918099N06143 1918 29 WP MM NOT_NAMED 1918-04-12 18:00:00 NR 10.9986 128.574 main 305 263 __________P___ -1 10.9986 128.574 4 8 302
1918099N06143 1918 29 WP MM NOT_NAMED 1918-04-12 21:00:00 NR 11.2208 128.220 main 263 253 __________P___ -1 11.2208 128.220 4 8 303
1918099N06143 1918 29 WP MM NOT_NAMED 1918-04-12 22:00:00 NR 11.3000 128.100 main 253 225 __________O___ -1 11.3000 128.100 4 9 301
1918099N06143 1918 29 WP MM NOT_NAMED 1918-04-13 00:00:00 NR 11.4506 127.830 main 225 191 __________P___ -1 11.4506 127.830 4 9 301
1918099N06143 1918 29 WP MM NOT_NAMED 1918-04-13 03:00:00 NR 11.6951 127.417 main 191 164 __________P___ -1 11.6951 127.417 4 9 303
1918099N06143 1918 29 WP MM NOT_NAMED 1918-04-13 06:00:00 NR 11.9699 127.027 main 164 130 __________P___ -1 11.9699 127.027 4 9 310
1918099N06143 1918 29 WP MM NOT_NAMED 1918-04-13 09:00:00 NR 12.2846 126.693 main 130 120 __________P___ -1 12.2846 126.693 4 9 316
1918099N06143 1918 29 WP MM NOT_NAMED 1918-04-13 10:00:00 NR 12.4000 126.600 main 121 107 __________O___ -1 12.4000 126.600 4 9 325
1918099N06143 1918 29 WP MM NOT_NAMED 1918-04-13 12:00:00 NR 12.6567 126.423 main 112 109 __________P___ -1 12.6567 126.423 4 9 331
1918099N06143 1918 29 WP MM NOT_NAMED 1918-04-13 15:00:00 NR 13.0800 126.220 main 125 125 __________P___ -1 13.0800 126.220 4 9 340
1918099N06143 1918 29 WP MM NOT_NAMED 1918-04-13 18:00:00 NR 13.5241 126.102 main 148 148 __________P___ -1 13.5241 126.102 4 9 351
1918099N06143 1918 29 WP MM NOT_NAMED 1918-04-13 21:00:00 NR 13.9609 126.083 main 183 183 __________P___ -1 13.9609 126.083 4 9 359
1918099N06143 1918 29 WP MM NOT_NAMED 1918-04-13 22:00:00 NR 14.1000 126.100 main 184 184 __________O___ -1 14.1000 126.100 4 8 11
1918099N06143 1918 29 WP MM NOT_NAMED 1918-04-14 00:00:00 NR 14.3556 126.157 main 202 202 __________P___ -1 14.3556 126.157 4 8 20
1918099N06143 1918 29 WP MM NOT_NAMED 1918-04-14 03:00:00 NR 14.7203 126.330 main 223 223 __________P___ -1 14.7203 126.330 4 8 30
1918099N06143 1918 29 WP MM NOT_NAMED 1918-04-14 06:00:00 NR 15.0653 126.584 main 272 272 __________P___ -1 15.0653 126.584 4 9 39
1918099N06143 1918 29 WP MM NOT_NAMED 1918-04-14 09:00:00 NR 15.3937 126.891 main 317 317 __________P___ -1 15.3937 126.891 4 9 43
1918099N06143 1918 29 WP MM NOT_NAMED 1918-04-14 10:00:00 NR 15.5000 127.000 main 332 332 __________O___ -1 15.5000 127.000 4 9 44
1918099N06143 1918 29 WP MM NOT_NAMED 1918-04-14 12:00:00 NR 15.7088 127.202 main 362 362 __________P___ -1 15.7088 127.202 4 9 45
1918099N06143 1918 29 WP MM NOT_NAMED 1918-04-14 15:00:00 NR 16.0093 127.537 main 407 416 __________P___ -1 16.0093 127.537 4 9 48
1918099N06143 1918 29 WP MM NOT_NAMED 1918-04-14 18:00:00 NR 16.3029 127.899 main 462 462 __________P___ -1 16.3029 127.899 4 9 50
1918099N06143 1918 29 WP MM NOT_NAMED 1918-04-14 21:00:00 NR 16.5991 128.274 main 516 516 __________P___ -1 16.5991 128.274 4 9 50
1918099N06143 1918 29 WP MM NOT_NAMED 1918-04-14 22:00:00 NR 16.7000 128.400 main 531 531 __________O___ -1 16.7000 128.400 4 10 48
1918099N06143 1918 29 WP MM NOT_NAMED 1918-04-15 00:00:00 NR 16.9161 128.644 main 561 570 __________P___ -1 16.9161 128.644 4 10 47
1918099N06143 1918 29 WP MM NOT_NAMED 1918-04-15 03:00:00 NR 17.2467 129.017 main 615 622 __________P___ -1 17.2467 129.017 4 10 47
1918099N06143 1918 29 WP MM NOT_NAMED 1918-04-15 06:00:00 NR 17.5769 129.395 main 676 676 __________P___ -1 17.5769 129.395 4 10 48
1918099N06143 1918 29 WP MM NOT_NAMED 1918-04-15 09:00:00 NR 17.8971 129.774 main 730 730 __________P___ -1 17.8971 129.774 4 10 49
1918099N06143 1918 29 WP MM NOT_NAMED 1918-04-15 10:00:00 NR 18.0000 129.900 main 745 745 __________O___ -1 18.0000 129.900 4 9 50
1918099N06143 1918 29 WP MM NOT_NAMED 1918-04-15 12:00:00 NR 18.1838 130.132 main 776 784 __________P___ -1 18.1838 130.132 4 9 51
1918099N06143 1918 29 WP MM NOT_NAMED 1918-04-15 15:00:00 NR 18.4469 130.480 main 823 830 __________P___ -1 18.4469 130.480 4 9 52
1918099N06143 1918 29 WP MM NOT_NAMED 1918-04-15 18:00:00 NR 18.7116 130.846 main 868 877 __________P___ -1 18.7116 130.846 4 9 53
1918099N06143 1918 29 WP MM NOT_NAMED 1918-04-15 21:00:00 NR 18.9970 131.252 main 931 931 __________P___ -1 18.9970 131.252 4 10 53
1918099N06143 1918 29 WP MM NOT_NAMED 1918-04-15 22:00:00 NR 19.1000 131.400 main 946 946 __________O___ -1 19.1000 131.400 4 11 53
1918099N06143 1918 29 WP MM NOT_NAMED 1918-04-16 00:00:00 NR 19.3298 131.721 main 984 984 __________P___ -1 19.3298 131.721 4 12 53
1918099N06143 1918 29 WP MM NOT_NAMED 1918-04-16 03:00:00 NR 19.6997 132.248 main 1050 1060 __________P___ -1 19.6997 132.248 4 13 54
1918099N06143 1918 29 WP MM NOT_NAMED 1918-04-16 06:00:00 NR 20.0860 132.813 main 1118 1118 __________P___ -1 20.0860 132.813 4 13 54
1918099N06143 1918 29 WP MM NOT_NAMED 1918-04-16 09:00:00 NR 20.4733 133.401 main 1187 1187 __________P___ -1 20.4733 133.401 4 14 55
1918099N06143 1918 29 WP MM NOT_NAMED 1918-04-16 10:00:00 NR 20.6000 133.600 main 1197 1183 __________O___ -1 20.6000 133.600 4 11 57
1918099N06143 1918 29 WP MM NOT_NAMED 1918-04-16 12:00:00 NR 20.7838 133.915 main 1183 1165 __________P___ -1 20.7838 133.915 4 10 59
1918099N06143 1918 29 WP MM NOT_NAMED 1918-04-16 15:00:00 NR 21.0526 134.398 main 1165 1150 __________P___ -1 21.0526 134.398 4 11 59
1918099N06143 1918 29 WP MM NOT_NAMED 1918-04-16 18:00:00 NR 21.3739 134.965 main 1154 1136 __________P___ -1 21.3739 134.965 4 14 58
1918099N06143 1918 29 WP MM NOT_NAMED 1918-04-16 21:00:00 NR 21.8149 135.702 main 1141 1129 __________P___ -1 21.8149 135.702 4 17 57
1918099N06143 1918 29 WP MM NOT_NAMED 1918-04-16 22:00:00 NR 22.0000 136.000 main 1134 1119 __________O___ -1 22.0000 136.000 4 23 56
1918099N06143 1918 29 WP MM NOT_NAMED 1918-04-17 00:00:00 NR 22.4670 136.747 main 1119 1114 __________P___ -1 22.4670 136.747 4 28 56
1918099N06143 1918 29 WP MM NOT_NAMED 1918-04-17 03:00:00 NR 23.2921 138.061 main 1119 1088 __________P___ -1 23.2921 138.061 4 31 56
1918099N06143 1918 29 WP MM NOT_NAMED 1918-04-17 06:00:00 NR 24.1972 139.501 main 1088 1049 __________P___ -1 24.1972 139.501 4 32 55
1918099N06143 1918 29 WP MM NOT_NAMED 1918-04-17 09:00:00 NR 25.1075 140.942 main 1049 1038 __________P___ -1 25.1075 140.942 4 32 55
1918099N06143 1918 29 WP MM NOT_NAMED 1918-04-17 10:00:00 NR 25.4000 141.400 main 1043 1016 __________O___ -1 25.4000 141.400 4 29 55
1918099N06143 1918 29 WP MM NOT_NAMED 1918-04-17 12:00:00 NR 25.9582 142.263 main 1016 970 __________P___ -1 25.9582 142.263 4 27 54
1918099N06143 1918 29 WP MM NOT_NAMED 1918-04-17 15:00:00 NR 26.7386 143.443 main 973 933 __________P___ -1 26.7386 143.443 4 25 53
1918099N06143 1918 29 WP MM NOT_NAMED 1918-04-17 18:00:00 NR 27.4695 144.526 main 933 919 __________P___ -1 27.4695 144.526 4 24 53
1918099N06143 1918 29 WP MM NOT_NAMED 1918-04-17 21:00:00 NR 28.1702 145.559 main 921 913 __________P___ -1 28.1702 145.559 4 23 52
1918099N06143 1918 29 WP MM NOT_NAMED 1918-04-17 22:00:00 NR 28.4000 145.900 main 918 __________O___ -1 28.4000 145.900 4 23 53

デジタル台風データ・検索

IBTrACS Databaseについて

本データベースは、米国NOAAが公開する1842年以降の世界の熱帯低気圧のベストトラックデータアーカイブInternational Best Track Archive for Climate Stewardship (IBTrACS)を、ウェブで閲覧しやすい形式に変換したものです。

最終更新日:2021-10-21